sensor_id;sensor_type;location;lat;lon;timestamp;P1;durP1;ratioP1;P2;durP2;ratioP2
43184;SDS011;28803;52.308;19.096;2023-03-17T00:01:17;55.00;;;20.08;;
43184;SDS011;28803;52.308;19.096;2023-03-17T00:03:46;43.00;;;19.20;;
43184;SDS011;28803;52.308;19.096;2023-03-17T00:06:17;52.25;;;17.85;;
43184;SDS011;28803;52.308;19.096;2023-03-17T00:08:50;50.47;;;16.90;;
43184;SDS011;28803;52.308;19.096;2023-03-17T00:11:18;54.35;;;20.20;;
43184;SDS011;28803;52.308;19.096;2023-03-17T00:13:45;49.22;;;18.88;;
43184;SDS011;28803;52.308;19.096;2023-03-17T00:18:52;52.05;;;18.85;;
43184;SDS011;28803;52.308;19.096;2023-03-17T00:21:23;44.55;;;17.88;;
43184;SDS011;28803;52.308;19.096;2023-03-17T00:26:21;46.08;;;16.77;;
43184;SDS011;28803;52.308;19.096;2023-03-17T00:28:50;46.00;;;16.95;;
43184;SDS011;28803;52.308;19.096;2023-03-17T00:31:18;44.45;;;17.25;;
43184;SDS011;28803;52.308;19.096;2023-03-17T00:33:50;45.63;;;14.55;;
43184;SDS011;28803;52.308;19.096;2023-03-17T00:36:23;36.53;;;14.93;;
43184;SDS011;28803;52.308;19.096;2023-03-17T00:38:53;44.10;;;15.32;;
43184;SDS011;28803;52.308;19.096;2023-03-17T00:41:21;38.05;;;15.35;;
43184;SDS011;28803;52.308;19.096;2023-03-17T00:43:49;35.40;;;15.27;;
43184;SDS011;28803;52.308;19.096;2023-03-17T00:49:03;36.08;;;14.85;;
43184;SDS011;28803;52.308;19.096;2023-03-17T00:51:39;41.60;;;16.17;;
43184;SDS011;28803;52.308;19.096;2023-03-17T00:54:08;31.77;;;15.07;;
43184;SDS011;28803;52.308;19.096;2023-03-17T00:56:36;33.42;;;13.70;;
43184;SDS011;28803;52.308;19.096;2023-03-17T00:59:10;37.28;;;14.82;;
43184;SDS011;28803;52.308;19.096;2023-03-17T01:01:46;36.88;;;16.00;;
43184;SDS011;28803;52.308;19.096;2023-03-17T01:04:14;36.85;;;16.08;;
43184;SDS011;28803;52.308;19.096;2023-03-17T01:06:41;36.42;;;14.00;;
43184;SDS011;28803;52.308;19.096;2023-03-17T01:09:13;45.80;;;16.67;;
43184;SDS011;28803;52.308;19.096;2023-03-17T01:11:42;44.58;;;17.63;;
43184;SDS011;28803;52.308;19.096;2023-03-17T01:14:10;43.40;;;18.67;;
43184;SDS011;28803;52.308;19.096;2023-03-17T01:16:38;43.60;;;17.85;;
43184;SDS011;28803;52.308;19.096;2023-03-17T01:19:06;41.40;;;17.92;;
43184;SDS011;28803;52.308;19.096;2023-03-17T01:21:34;47.38;;;17.80;;
43184;SDS011;28803;52.308;19.096;2023-03-17T01:24:02;49.05;;;18.33;;
43184;SDS011;28803;52.308;19.096;2023-03-17T01:26:29;56.58;;;20.95;;
43184;SDS011;28803;52.308;19.096;2023-03-17T01:28:57;55.13;;;21.05;;
43184;SDS011;28803;52.308;19.096;2023-03-17T01:31:25;56.33;;;21.75;;
43184;SDS011;28803;52.308;19.096;2023-03-17T01:33:53;53.70;;;23.15;;
43184;SDS011;28803;52.308;19.096;2023-03-17T01:36:20;57.65;;;22.63;;
43184;SDS011;28803;52.308;19.096;2023-03-17T01:38:48;48.55;;;20.60;;
43184;SDS011;28803;52.308;19.096;2023-03-17T01:41:19;59.20;;;24.55;;
43184;SDS011;28803;52.308;19.096;2023-03-17T01:43:46;66.10;;;22.20;;
43184;SDS011;28803;52.308;19.096;2023-03-17T01:48:52;46.58;;;20.35;;
43184;SDS011;28803;52.308;19.096;2023-03-17T01:56:47;54.13;;;22.42;;
43184;SDS011;28803;52.308;19.096;2023-03-17T01:59:22;49.38;;;20.52;;
43184;SDS011;28803;52.308;19.096;2023-03-17T02:01:56;51.25;;;20.88;;
43184;SDS011;28803;52.308;19.096;2023-03-17T02:04:27;40.50;;;17.85;;
43184;SDS011;28803;52.308;19.096;2023-03-17T02:06:55;52.33;;;22.10;;
43184;SDS011;28803;52.308;19.096;2023-03-17T02:09:25;48.13;;;20.77;;
43184;SDS011;28803;52.308;19.096;2023-03-17T02:11:53;46.67;;;20.85;;
43184;SDS011;28803;52.308;19.096;2023-03-17T02:14:21;44.33;;;21.23;;
43184;SDS011;28803;52.308;19.096;2023-03-17T02:16:49;46.53;;;21.35;;
43184;SDS011;28803;52.308;19.096;2023-03-17T02:19:17;42.58;;;20.67;;
43184;SDS011;28803;52.308;19.096;2023-03-17T02:21:46;47.65;;;21.23;;
43184;SDS011;28803;52.308;19.096;2023-03-17T02:24:30;37.42;;;17.70;;
43184;SDS011;28803;52.308;19.096;2023-03-17T02:29:37;34.50;;;15.05;;
43184;SDS011;28803;52.308;19.096;2023-03-17T02:32:05;36.50;;;14.90;;
43184;SDS011;28803;52.308;19.096;2023-03-17T02:34:33;34.45;;;15.95;;
43184;SDS011;28803;52.308;19.096;2023-03-17T02:37:01;40.42;;;15.88;;
43184;SDS011;28803;52.308;19.096;2023-03-17T02:39:29;39.38;;;17.08;;
43184;SDS011;28803;52.308;19.096;2023-03-17T02:41:57;38.90;;;16.02;;
43184;SDS011;28803;52.308;19.096;2023-03-17T02:44:25;33.45;;;15.82;;
43184;SDS011;28803;52.308;19.096;2023-03-17T02:46:52;32.70;;;13.93;;
43184;SDS011;28803;52.308;19.096;2023-03-17T02:49:19;28.10;;;11.40;;
43184;SDS011;28803;52.308;19.096;2023-03-17T02:51:47;31.80;;;13.20;;
43184;SDS011;28803;52.308;19.096;2023-03-17T02:54:15;32.80;;;13.82;;
43184;SDS011;28803;52.308;19.096;2023-03-17T02:56:42;32.47;;;13.73;;
43184;SDS011;28803;52.308;19.096;2023-03-17T02:59:10;32.83;;;15.80;;
43184;SDS011;28803;52.308;19.096;2023-03-17T03:01:37;36.15;;;16.30;;
43184;SDS011;28803;52.308;19.096;2023-03-17T03:04:05;30.48;;;15.18;;
43184;SDS011;28803;52.308;19.096;2023-03-17T03:06:34;28.52;;;12.32;;
43184;SDS011;28803;52.308;19.096;2023-03-17T03:09:03;35.13;;;12.32;;
43184;SDS011;28803;52.308;19.096;2023-03-17T03:11:31;30.38;;;12.80;;
43184;SDS011;28803;52.308;19.096;2023-03-17T03:13:58;32.03;;;13.15;;
43184;SDS011;28803;52.308;19.096;2023-03-17T03:16:25;24.75;;;11.00;;
43184;SDS011;28803;52.308;19.096;2023-03-17T03:18:53;27.48;;;11.07;;
43184;SDS011;28803;52.308;19.096;2023-03-17T03:21:20;21.33;;;9.32;;
43184;SDS011;28803;52.308;19.096;2023-03-17T03:23:48;30.40;;;11.25;;
43184;SDS011;28803;52.308;19.096;2023-03-17T03:26:15;23.33;;;10.43;;
43184;SDS011;28803;52.308;19.096;2023-03-17T03:28:43;26.60;;;10.30;;
43184;SDS011;28803;52.308;19.096;2023-03-17T03:31:11;31.40;;;9.63;;
43184;SDS011;28803;52.308;19.096;2023-03-17T03:33:40;30.33;;;11.90;;
43184;SDS011;28803;52.308;19.096;2023-03-17T03:36:08;25.60;;;12.90;;
43184;SDS011;28803;52.308;19.096;2023-03-17T03:38:36;23.67;;;10.23;;
43184;SDS011;28803;52.308;19.096;2023-03-17T03:41:03;28.33;;;10.88;;
43184;SDS011;28803;52.308;19.096;2023-03-17T03:43:32;28.63;;;10.85;;
43184;SDS011;28803;52.308;19.096;2023-03-17T03:45:59;26.77;;;10.90;;
43184;SDS011;28803;52.308;19.096;2023-03-17T03:48:27;37.67;;;13.80;;
43184;SDS011;28803;52.308;19.096;2023-03-17T03:50:55;34.08;;;13.43;;
43184;SDS011;28803;52.308;19.096;2023-03-17T03:53:24;34.58;;;14.45;;
43184;SDS011;28803;52.308;19.096;2023-03-17T03:55:51;32.65;;;14.70;;
43184;SDS011;28803;52.308;19.096;2023-03-17T03:58:19;34.42;;;13.63;;
43184;SDS011;28803;52.308;19.096;2023-03-17T04:00:46;36.03;;;14.48;;
43184;SDS011;28803;52.308;19.096;2023-03-17T04:03:14;40.92;;;15.60;;
43184;SDS011;28803;52.308;19.096;2023-03-17T04:05:42;30.67;;;14.95;;
43184;SDS011;28803;52.308;19.096;2023-03-17T04:08:09;37.60;;;16.55;;
43184;SDS011;28803;52.308;19.096;2023-03-17T04:10:37;38.17;;;17.10;;
43184;SDS011;28803;52.308;19.096;2023-03-17T04:13:04;46.67;;;17.67;;
43184;SDS011;28803;52.308;19.096;2023-03-17T04:15:31;35.20;;;16.83;;
43184;SDS011;28803;52.308;19.096;2023-03-17T04:17:59;41.80;;;17.35;;
43184;SDS011;28803;52.308;19.096;2023-03-17T04:20:26;45.05;;;19.40;;
43184;SDS011;28803;52.308;19.096;2023-03-17T04:22:55;44.65;;;19.23;;
43184;SDS011;28803;52.308;19.096;2023-03-17T04:25:22;57.40;;;22.85;;
43184;SDS011;28803;52.308;19.096;2023-03-17T04:27:49;48.13;;;21.02;;
43184;SDS011;28803;52.308;19.096;2023-03-17T04:30:16;55.88;;;25.13;;
43184;SDS011;28803;52.308;19.096;2023-03-17T04:32:44;54.35;;;23.42;;
43184;SDS011;28803;52.308;19.096;2023-03-17T04:35:16;56.42;;;23.52;;
43184;SDS011;28803;52.308;19.096;2023-03-17T04:37:45;52.13;;;22.42;;
43184;SDS011;28803;52.308;19.096;2023-03-17T04:40:14;57.20;;;21.63;;
43184;SDS011;28803;52.308;19.096;2023-03-17T04:42:42;50.53;;;20.83;;
43184;SDS011;28803;52.308;19.096;2023-03-17T04:45:10;49.92;;;21.60;;
43184;SDS011;28803;52.308;19.096;2023-03-17T04:47:38;57.53;;;23.73;;
43184;SDS011;28803;52.308;19.096;2023-03-17T04:50:05;53.58;;;22.80;;
43184;SDS011;28803;52.308;19.096;2023-03-17T04:52:35;50.50;;;22.67;;
43184;SDS011;28803;52.308;19.096;2023-03-17T04:55:03;56.25;;;22.45;;
43184;SDS011;28803;52.308;19.096;2023-03-17T04:57:32;50.78;;;22.17;;
43184;SDS011;28803;52.308;19.096;2023-03-17T05:00:00;59.95;;;22.67;;
43184;SDS011;28803;52.308;19.096;2023-03-17T05:02:27;46.42;;;18.35;;
43184;SDS011;28803;52.308;19.096;2023-03-17T05:04:55;51.65;;;20.42;;
43184;SDS011;28803;52.308;19.096;2023-03-17T05:07:22;53.83;;;19.40;;
43184;SDS011;28803;52.308;19.096;2023-03-17T05:09:50;53.72;;;21.25;;
43184;SDS011;28803;52.308;19.096;2023-03-17T05:12:17;49.63;;;20.42;;
43184;SDS011;28803;52.308;19.096;2023-03-17T05:14:44;58.83;;;21.48;;
43184;SDS011;28803;52.308;19.096;2023-03-17T05:17:13;57.70;;;22.65;;
43184;SDS011;28803;52.308;19.096;2023-03-17T05:19:40;58.05;;;22.65;;
43184;SDS011;28803;52.308;19.096;2023-03-17T05:22:08;59.40;;;23.50;;
43184;SDS011;28803;52.308;19.096;2023-03-17T05:24:37;53.05;;;24.00;;
43184;SDS011;28803;52.308;19.096;2023-03-17T05:27:04;62.92;;;24.55;;
43184;SDS011;28803;52.308;19.096;2023-03-17T05:29:32;51.88;;;22.58;;
43184;SDS011;28803;52.308;19.096;2023-03-17T05:32:00;61.42;;;24.27;;
43184;SDS011;28803;52.308;19.096;2023-03-17T05:34:27;57.78;;;23.70;;
43184;SDS011;28803;52.308;19.096;2023-03-17T05:36:55;56.88;;;22.52;;
43184;SDS011;28803;52.308;19.096;2023-03-17T05:39:22;57.35;;;22.00;;
43184;SDS011;28803;52.308;19.096;2023-03-17T05:41:50;51.10;;;18.52;;
43184;SDS011;28803;52.308;19.096;2023-03-17T05:44:17;43.58;;;18.80;;
43184;SDS011;28803;52.308;19.096;2023-03-17T05:46:46;36.10;;;16.88;;
43184;SDS011;28803;52.308;19.096;2023-03-17T05:49:12;38.42;;;16.77;;
43184;SDS011;28803;52.308;19.096;2023-03-17T05:51:40;41.35;;;18.08;;
43184;SDS011;28803;52.308;19.096;2023-03-17T05:54:08;31.95;;;15.70;;
43184;SDS011;28803;52.308;19.096;2023-03-17T05:56:36;35.78;;;16.38;;
43184;SDS011;28803;52.308;19.096;2023-03-17T05:59:03;39.65;;;16.20;;
43184;SDS011;28803;52.308;19.096;2023-03-17T06:01:31;36.22;;;15.52;;
43184;SDS011;28803;52.308;19.096;2023-03-17T06:03:59;38.20;;;14.18;;
43184;SDS011;28803;52.308;19.096;2023-03-17T06:06:27;31.88;;;13.57;;
43184;SDS011;28803;52.308;19.096;2023-03-17T06:08:54;35.97;;;14.82;;
43184;SDS011;28803;52.308;19.096;2023-03-17T06:11:22;34.97;;;14.77;;
43184;SDS011;28803;52.308;19.096;2023-03-17T06:13:49;37.97;;;14.43;;
43184;SDS011;28803;52.308;19.096;2023-03-17T06:16:17;38.85;;;14.70;;
43184;SDS011;28803;52.308;19.096;2023-03-17T06:18:44;38.45;;;14.40;;
43184;SDS011;28803;52.308;19.096;2023-03-17T06:21:11;41.97;;;16.65;;
43184;SDS011;28803;52.308;19.096;2023-03-17T06:23:39;118.38;;;38.13;;
43184;SDS011;28803;52.308;19.096;2023-03-17T06:26:06;44.03;;;20.48;;
43184;SDS011;28803;52.308;19.096;2023-03-17T06:28:33;33.22;;;15.18;;
43184;SDS011;28803;52.308;19.096;2023-03-17T06:31:01;35.50;;;15.30;;
43184;SDS011;28803;52.308;19.096;2023-03-17T06:33:32;31.33;;;15.02;;
43184;SDS011;28803;52.308;19.096;2023-03-17T06:36:00;24.98;;;11.80;;
43184;SDS011;28803;52.308;19.096;2023-03-17T06:38:28;29.17;;;12.57;;
43184;SDS011;28803;52.308;19.096;2023-03-17T06:40:55;25.33;;;10.70;;
43184;SDS011;28803;52.308;19.096;2023-03-17T06:43:23;27.52;;;12.00;;
43184;SDS011;28803;52.308;19.096;2023-03-17T06:45:51;24.45;;;10.98;;
43184;SDS011;28803;52.308;19.096;2023-03-17T06:48:18;24.70;;;11.00;;
43184;SDS011;28803;52.308;19.096;2023-03-17T06:50:45;31.45;;;13.13;;
43184;SDS011;28803;52.308;19.096;2023-03-17T06:53:13;31.63;;;11.65;;
43184;SDS011;28803;52.308;19.096;2023-03-17T06:55:40;29.52;;;11.10;;
43184;SDS011;28803;52.308;19.096;2023-03-17T06:58:08;23.10;;;10.93;;
43184;SDS011;28803;52.308;19.096;2023-03-17T07:00:36;22.40;;;10.45;;
43184;SDS011;28803;52.308;19.096;2023-03-17T07:03:06;23.73;;;9.95;;
43184;SDS011;28803;52.308;19.096;2023-03-17T07:05:35;22.45;;;9.48;;
43184;SDS011;28803;52.308;19.096;2023-03-17T07:08:04;24.55;;;9.75;;
43184;SDS011;28803;52.308;19.096;2023-03-17T07:10:32;28.25;;;10.73;;
43184;SDS011;28803;52.308;19.096;2023-03-17T07:13:00;21.00;;;9.30;;
43184;SDS011;28803;52.308;19.096;2023-03-17T07:15:28;23.02;;;10.15;;
43184;SDS011;28803;52.308;19.096;2023-03-17T07:18:00;24.70;;;9.95;;
43184;SDS011;28803;52.308;19.096;2023-03-17T07:20:28;24.67;;;9.05;;
43184;SDS011;28803;52.308;19.096;2023-03-17T07:22:56;17.92;;;9.15;;
43184;SDS011;28803;52.308;19.096;2023-03-17T07:25:24;22.80;;;9.82;;
43184;SDS011;28803;52.308;19.096;2023-03-17T07:27:51;18.52;;;9.40;;
43184;SDS011;28803;52.308;19.096;2023-03-17T07:30:18;20.80;;;9.10;;
43184;SDS011;28803;52.308;19.096;2023-03-17T07:32:46;17.27;;;8.63;;
43184;SDS011;28803;52.308;19.096;2023-03-17T07:35:14;22.75;;;9.00;;
43184;SDS011;28803;52.308;19.096;2023-03-17T07:37:41;18.50;;;8.75;;
43184;SDS011;28803;52.308;19.096;2023-03-17T07:40:10;21.08;;;8.98;;
43184;SDS011;28803;52.308;19.096;2023-03-17T07:42:37;20.70;;;9.40;;
43184;SDS011;28803;52.308;19.096;2023-03-17T07:45:05;19.55;;;7.80;;
43184;SDS011;28803;52.308;19.096;2023-03-17T07:47:33;16.08;;;7.88;;
43184;SDS011;28803;52.308;19.096;2023-03-17T07:50:01;17.45;;;6.85;;
43184;SDS011;28803;52.308;19.096;2023-03-17T07:52:28;16.23;;;7.78;;
43184;SDS011;28803;52.308;19.096;2023-03-17T07:54:55;18.83;;;6.82;;
43184;SDS011;28803;52.308;19.096;2023-03-17T07:57:23;16.70;;;7.25;;
43184;SDS011;28803;52.308;19.096;2023-03-17T07:59:52;23.02;;;7.75;;
43184;SDS011;28803;52.308;19.096;2023-03-17T08:02:20;17.10;;;8.13;;
43184;SDS011;28803;52.308;19.096;2023-03-17T08:04:48;17.23;;;8.18;;
43184;SDS011;28803;52.308;19.096;2023-03-17T08:07:16;20.38;;;9.20;;
43184;SDS011;28803;52.308;19.096;2023-03-17T08:09:44;15.13;;;7.75;;
43184;SDS011;28803;52.308;19.096;2023-03-17T08:12:12;19.27;;;8.38;;
43184;SDS011;28803;52.308;19.096;2023-03-17T08:14:40;18.10;;;8.68;;
43184;SDS011;28803;52.308;19.096;2023-03-17T08:17:08;18.95;;;8.32;;
43184;SDS011;28803;52.308;19.096;2023-03-17T08:19:36;21.08;;;8.45;;
43184;SDS011;28803;52.308;19.096;2023-03-17T08:22:04;20.58;;;7.75;;
43184;SDS011;28803;52.308;19.096;2023-03-17T08:24:32;17.08;;;7.72;;
43184;SDS011;28803;52.308;19.096;2023-03-17T08:27:00;19.73;;;7.38;;
43184;SDS011;28803;52.308;19.096;2023-03-17T08:29:28;14.43;;;7.28;;
43184;SDS011;28803;52.308;19.096;2023-03-17T08:31:56;17.48;;;7.45;;
43184;SDS011;28803;52.308;19.096;2023-03-17T08:34:24;19.70;;;8.18;;
43184;SDS011;28803;52.308;19.096;2023-03-17T08:36:51;13.48;;;7.05;;
43184;SDS011;28803;52.308;19.096;2023-03-17T08:39:19;17.42;;;8.30;;
43184;SDS011;28803;52.308;19.096;2023-03-17T08:41:46;19.60;;;7.82;;
43184;SDS011;28803;52.308;19.096;2023-03-17T08:44:14;19.60;;;7.18;;
43184;SDS011;28803;52.308;19.096;2023-03-17T08:46:42;13.20;;;6.40;;
43184;SDS011;28803;52.308;19.096;2023-03-17T08:49:10;17.38;;;6.30;;
43184;SDS011;28803;52.308;19.096;2023-03-17T08:51:38;14.75;;;6.88;;
43184;SDS011;28803;52.308;19.096;2023-03-17T08:54:05;13.55;;;7.15;;
43184;SDS011;28803;52.308;19.096;2023-03-17T08:56:33;15.52;;;7.03;;
43184;SDS011;28803;52.308;19.096;2023-03-17T08:59:05;16.00;;;7.18;;
43184;SDS011;28803;52.308;19.096;2023-03-17T09:01:33;16.38;;;6.10;;
43184;SDS011;28803;52.308;19.096;2023-03-17T09:04:01;16.90;;;6.45;;
43184;SDS011;28803;52.308;19.096;2023-03-17T09:06:28;14.00;;;6.25;;
43184;SDS011;28803;52.308;19.096;2023-03-17T09:08:57;15.48;;;6.97;;
43184;SDS011;28803;52.308;19.096;2023-03-17T09:11:27;15.40;;;5.22;;
43184;SDS011;28803;52.308;19.096;2023-03-17T09:13:58;18.13;;;6.20;;
43184;SDS011;28803;52.308;19.096;2023-03-17T09:16:25;15.35;;;6.25;;
43184;SDS011;28803;52.308;19.096;2023-03-17T09:18:54;17.50;;;5.97;;
43184;SDS011;28803;52.308;19.096;2023-03-17T09:21:21;11.82;;;5.05;;
43184;SDS011;28803;52.308;19.096;2023-03-17T09:23:49;10.57;;;5.57;;
43184;SDS011;28803;52.308;19.096;2023-03-17T09:26:16;11.00;;;3.67;;
43184;SDS011;28803;52.308;19.096;2023-03-17T09:28:45;10.85;;;3.17;;
43184;SDS011;28803;52.308;19.096;2023-03-17T09:31:12;7.75;;;3.05;;
43184;SDS011;28803;52.308;19.096;2023-03-17T09:33:40;8.93;;;3.38;;
43184;SDS011;28803;52.308;19.096;2023-03-17T09:36:08;9.90;;;3.53;;
43184;SDS011;28803;52.308;19.096;2023-03-17T09:38:37;11.30;;;3.38;;
43184;SDS011;28803;52.308;19.096;2023-03-17T09:43:56;8.45;;;3.28;;
43184;SDS011;28803;52.308;19.096;2023-03-17T09:49:20;7.97;;;2.22;;
43184;SDS011;28803;52.308;19.096;2023-03-17T09:51:50;6.35;;;2.47;;
43184;SDS011;28803;52.308;19.096;2023-03-17T09:54:30;5.20;;;2.25;;
43184;SDS011;28803;52.308;19.096;2023-03-17T09:57:03;7.45;;;2.55;;
43184;SDS011;28803;52.308;19.096;2023-03-17T09:59:41;7.60;;;2.63;;
43184;SDS011;28803;52.308;19.096;2023-03-17T10:02:16;5.93;;;2.20;;
43184;SDS011;28803;52.308;19.096;2023-03-17T10:04:55;7.10;;;2.28;;
43184;SDS011;28803;52.308;19.096;2023-03-17T10:07:25;5.40;;;2.15;;
43184;SDS011;28803;52.308;19.096;2023-03-17T10:10:04;3.60;;;2.40;;
43184;SDS011;28803;52.308;19.096;2023-03-17T10:12:51;7.40;;;2.13;;
43184;SDS011;28803;52.308;19.096;2023-03-17T10:18:28;6.18;;;1.90;;
43184;SDS011;28803;52.308;19.096;2023-03-17T10:21:02;6.72;;;2.20;;
43184;SDS011;28803;52.308;19.096;2023-03-17T10:23:33;6.90;;;1.90;;
43184;SDS011;28803;52.308;19.096;2023-03-17T10:26:07;9.82;;;2.75;;
43184;SDS011;28803;52.308;19.096;2023-03-17T10:28:40;5.35;;;2.50;;
43184;SDS011;28803;52.308;19.096;2023-03-17T10:31:19;7.15;;;3.05;;
43184;SDS011;28803;52.308;19.096;2023-03-17T10:33:54;5.78;;;2.40;;
43184;SDS011;28803;52.308;19.096;2023-03-17T10:36:32;6.05;;;2.10;;
43184;SDS011;28803;52.308;19.096;2023-03-17T10:39:04;5.60;;;2.20;;
43184;SDS011;28803;52.308;19.096;2023-03-17T10:41:37;6.80;;;2.22;;
43184;SDS011;28803;52.308;19.096;2023-03-17T10:44:08;8.15;;;2.60;;
43184;SDS011;28803;52.308;19.096;2023-03-17T10:46:55;9.52;;;2.50;;
43184;SDS011;28803;52.308;19.096;2023-03-17T10:49:23;9.80;;;2.60;;
43184;SDS011;28803;52.308;19.096;2023-03-17T10:51:52;5.97;;;2.92;;
43184;SDS011;28803;52.308;19.096;2023-03-17T10:54:22;11.02;;;2.10;;
43184;SDS011;28803;52.308;19.096;2023-03-17T10:57:10;3.53;;;1.88;;
43184;SDS011;28803;52.308;19.096;2023-03-17T10:59:47;3.70;;;2.03;;
43184;SDS011;28803;52.308;19.096;2023-03-17T11:05:02;8.25;;;3.10;;
43184;SDS011;28803;52.308;19.096;2023-03-17T11:07:36;5.93;;;2.80;;
43184;SDS011;28803;52.308;19.096;2023-03-17T11:10:19;6.90;;;2.33;;
43184;SDS011;28803;52.308;19.096;2023-03-17T11:12:59;7.18;;;2.42;;
43184;SDS011;28803;52.308;19.096;2023-03-17T11:15:37;7.57;;;2.50;;
43184;SDS011;28803;52.308;19.096;2023-03-17T11:24:11;5.45;;;1.88;;
43184;SDS011;28803;52.308;19.096;2023-03-17T11:46:01;6.67;;;2.50;;
43184;SDS011;28803;52.308;19.096;2023-03-17T11:57:38;7.18;;;2.40;;
43184;SDS011;28803;52.308;19.096;2023-03-17T12:05:50;6.00;;;2.47;;
43184;SDS011;28803;52.308;19.096;2023-03-17T12:10:59;6.20;;;2.45;;
43184;SDS011;28803;52.308;19.096;2023-03-17T12:13:44;7.88;;;3.20;;
43184;SDS011;28803;52.308;19.096;2023-03-17T12:34:55;4.93;;;2.17;;
43184;SDS011;28803;52.308;19.096;2023-03-17T12:37:27;6.13;;;2.60;;
43184;SDS011;28803;52.308;19.096;2023-03-17T12:53:54;4.22;;;2.10;;
43184;SDS011;28803;52.308;19.096;2023-03-17T12:59:03;7.03;;;2.67;;
43184;SDS011;28803;52.308;19.096;2023-03-17T13:02:36;5.93;;;2.22;;
43184;SDS011;28803;52.308;19.096;2023-03-17T13:04:52;6.00;;;2.40;;
43184;SDS011;28803;52.308;19.096;2023-03-17T13:07:31;8.32;;;3.28;;
43184;SDS011;28803;52.308;19.096;2023-03-17T13:26:13;7.25;;;2.60;;
43184;SDS011;28803;52.308;19.096;2023-03-17T13:28:46;6.15;;;2.65;;
43184;SDS011;28803;52.308;19.096;2023-03-17T13:33:57;8.25;;;3.78;;
43184;SDS011;28803;52.308;19.096;2023-03-17T13:36:52;10.57;;;3.13;;
43184;SDS011;28803;52.308;19.096;2023-03-17T13:39:31;11.80;;;4.88;;
43184;SDS011;28803;52.308;19.096;2023-03-17T13:42:18;12.90;;;3.05;;
43184;SDS011;28803;52.308;19.096;2023-03-17T13:47:33;6.20;;;2.97;;
43184;SDS011;28803;52.308;19.096;2023-03-17T13:52:45;7.47;;;3.20;;
43184;SDS011;28803;52.308;19.096;2023-03-17T14:00:38;7.13;;;2.75;;
43184;SDS011;28803;52.308;19.096;2023-03-17T14:03:15;8.00;;;3.13;;
43184;SDS011;28803;52.308;19.096;2023-03-17T14:05:46;7.65;;;3.20;;
43184;SDS011;28803;52.308;19.096;2023-03-17T14:10:54;6.75;;;2.80;;
43184;SDS011;28803;52.308;19.096;2023-03-17T14:13:24;6.50;;;2.67;;
43184;SDS011;28803;52.308;19.096;2023-03-17T14:16:04;7.45;;;2.50;;
43184;SDS011;28803;52.308;19.096;2023-03-17T14:18:33;7.28;;;3.00;;
43184;SDS011;28803;52.308;19.096;2023-03-17T14:21:04;6.20;;;2.78;;
43184;SDS011;28803;52.308;19.096;2023-03-17T14:26:03;7.15;;;2.92;;
43184;SDS011;28803;52.308;19.096;2023-03-17T14:28:33;8.38;;;3.58;;
43184;SDS011;28803;52.308;19.096;2023-03-17T14:31:05;13.93;;;6.20;;
43184;SDS011;28803;52.308;19.096;2023-03-17T14:33:37;8.67;;;2.97;;
43184;SDS011;28803;52.308;19.096;2023-03-17T14:36:08;9.07;;;3.28;;
43184;SDS011;28803;52.308;19.096;2023-03-17T14:38:45;5.95;;;2.65;;
43184;SDS011;28803;52.308;19.096;2023-03-17T14:41:18;8.85;;;3.40;;
43184;SDS011;28803;52.308;19.096;2023-03-17T14:43:48;7.55;;;3.03;;
43184;SDS011;28803;52.308;19.096;2023-03-17T14:48:57;10.80;;;4.03;;
43184;SDS011;28803;52.308;19.096;2023-03-17T14:51:33;9.13;;;3.53;;
43184;SDS011;28803;52.308;19.096;2023-03-17T14:54:04;9.07;;;3.00;;
43184;SDS011;28803;52.308;19.096;2023-03-17T14:56:45;14.43;;;6.35;;
43184;SDS011;28803;52.308;19.096;2023-03-17T14:59:19;11.10;;;3.80;;
43184;SDS011;28803;52.308;19.096;2023-03-17T15:01:57;7.63;;;3.15;;
43184;SDS011;28803;52.308;19.096;2023-03-17T15:04:27;9.57;;;4.25;;
43184;SDS011;28803;52.308;19.096;2023-03-17T15:07:03;9.73;;;3.30;;
43184;SDS011;28803;52.308;19.096;2023-03-17T15:09:34;8.90;;;2.85;;
43184;SDS011;28803;52.308;19.096;2023-03-17T15:14:49;7.47;;;3.33;;
43184;SDS011;28803;52.308;19.096;2023-03-17T15:17:38;9.27;;;4.45;;
43184;SDS011;28803;52.308;19.096;2023-03-17T15:25:53;5.93;;;2.45;;
43184;SDS011;28803;52.308;19.096;2023-03-17T15:28:24;7.40;;;3.22;;
43184;SDS011;28803;52.308;19.096;2023-03-17T15:30:58;4.93;;;2.72;;
43184;SDS011;28803;52.308;19.096;2023-03-17T15:33:39;7.13;;;2.78;;
43184;SDS011;28803;52.308;19.096;2023-03-17T15:36:10;8.25;;;2.67;;
43184;SDS011;28803;52.308;19.096;2023-03-17T15:38:58;6.40;;;2.65;;
43184;SDS011;28803;52.308;19.096;2023-03-17T15:41:26;6.88;;;2.67;;
43184;SDS011;28803;52.308;19.096;2023-03-17T15:43:53;9.93;;;3.20;;
43184;SDS011;28803;52.308;19.096;2023-03-17T15:46:23;9.27;;;2.90;;
43184;SDS011;28803;52.308;19.096;2023-03-17T15:48:53;10.13;;;2.53;;
43184;SDS011;28803;52.308;19.096;2023-03-17T15:51:20;8.80;;;3.40;;
43184;SDS011;28803;52.308;19.096;2023-03-17T15:53:48;5.35;;;2.88;;
43184;SDS011;28803;52.308;19.096;2023-03-17T15:56:17;5.32;;;2.58;;
43184;SDS011;28803;52.308;19.096;2023-03-17T15:58:46;5.93;;;2.22;;
43184;SDS011;28803;52.308;19.096;2023-03-17T16:01:14;5.97;;;2.85;;
43184;SDS011;28803;52.308;19.096;2023-03-17T16:03:42;8.88;;;3.22;;
43184;SDS011;28803;52.308;19.096;2023-03-17T16:06:19;7.82;;;2.88;;
43184;SDS011;28803;52.308;19.096;2023-03-17T16:08:48;12.75;;;4.22;;
43184;SDS011;28803;52.308;19.096;2023-03-17T16:11:17;29.15;;;10.93;;
43184;SDS011;28803;52.308;19.096;2023-03-17T16:13:48;16.13;;;6.70;;
43184;SDS011;28803;52.308;19.096;2023-03-17T16:16:17;34.25;;;13.82;;
43184;SDS011;28803;52.308;19.096;2023-03-17T16:18:48;14.07;;;6.18;;
43184;SDS011;28803;52.308;19.096;2023-03-17T16:21:17;12.13;;;4.75;;
43184;SDS011;28803;52.308;19.096;2023-03-17T16:23:45;15.68;;;8.20;;
43184;SDS011;28803;52.308;19.096;2023-03-17T16:26:13;15.00;;;7.43;;
43184;SDS011;28803;52.308;19.096;2023-03-17T16:28:43;12.77;;;5.60;;
43184;SDS011;28803;52.308;19.096;2023-03-17T16:31:15;11.20;;;5.53;;
43184;SDS011;28803;52.308;19.096;2023-03-17T16:33:50;8.25;;;3.95;;
43184;SDS011;28803;52.308;19.096;2023-03-17T16:36:18;11.80;;;4.95;;
43184;SDS011;28803;52.308;19.096;2023-03-17T16:38:47;18.05;;;5.90;;
43184;SDS011;28803;52.308;19.096;2023-03-17T16:43:45;17.52;;;6.38;;
43184;SDS011;28803;52.308;19.096;2023-03-17T16:46:16;13.23;;;5.30;;
43184;SDS011;28803;52.308;19.096;2023-03-17T16:48:45;14.02;;;5.55;;
43184;SDS011;28803;52.308;19.096;2023-03-17T16:51:14;15.70;;;5.43;;
43184;SDS011;28803;52.308;19.096;2023-03-17T16:53:44;19.02;;;6.28;;
43184;SDS011;28803;52.308;19.096;2023-03-17T16:56:12;20.05;;;7.18;;
43184;SDS011;28803;52.308;19.096;2023-03-17T16:58:42;11.45;;;4.18;;
43184;SDS011;28803;52.308;19.096;2023-03-17T17:01:15;11.20;;;4.15;;
43184;SDS011;28803;52.308;19.096;2023-03-17T17:03:47;12.60;;;5.35;;
43184;SDS011;28803;52.308;19.096;2023-03-17T17:06:15;15.25;;;5.90;;
43184;SDS011;28803;52.308;19.096;2023-03-17T17:08:45;10.38;;;5.05;;
43184;SDS011;28803;52.308;19.096;2023-03-17T17:11:13;13.68;;;4.93;;